Elmwood, Louisiana
Current Conditions -  °F | °C
As of 7:53 PM on Tuesday 21 Oct 2014 (Local Time) from KMSY Reporting Station
Clear Clear  
Wind Chill: 71°   Ceiling: Unl
Heat Index: 71°   Visibility: 10mi
Dew Point: 55°   Wind: 0mph
Humidity: 57%   Direction: NA
Pressure: 30"   Gusts: NA
Location:  29.9536°N, 90.2034°W
Report Text: KMSY 220053Z 00000KT 10SM CLR 22/13 A3000 RMK AO2 SLP160 T02170128
Loading
Personal Weather Stations






























Interactive Weather Map
Tropical Storm Tracking
New forecast layout! Learn more

10-Day Weather Forecast

Advertisements
Track Severe Weather on mobile